Time;durP1;ratioP1;P1;durP2;ratioP2;P2;SDS_P1;SDS_P2;PMS_P1;PMS_P2;Temp;Humidity;BMP_temperature;BMP_pressure;BME280_temperature;BME280_humidity;BME280_pressure;Samples;Min_cycle;Max_cycle;Signal;HPM_P1;HPM_P2
2024/02/09 04:05:09;;;;;;;1.40;1.27;;;9.30;99.90;;;;;;5182771;23;19921;31
2024/02/09 04:07:35;;;;;;;0.85;0.85;;;9.30;99.90;;;;;;4848920;29;20054;-85
2024/02/09 04:10:02;;;;;;;1.20;1.10;;;9.40;99.90;;;;;;4866448;29;20038;-86
2024/02/09 04:12:30;;;;;;;0.35;0.35;;;9.40;99.90;;;;;;4859652;29;20398;-87
2024/02/09 04:14:56;;;;;;;0.82;0.60;;;9.40;99.90;;;;;;4869284;29;20063;-87
2024/02/09 04:17:22;;;;;;;1.00;1.00;;;9.40;99.90;;;;;;4868155;29;20046;-81
2024/02/09 04:19:48;;;;;;;1.15;0.98;;;9.40;99.90;;;;;;4867404;29;20392;-87
2024/02/09 04:22:15;;;;;;;1.88;1.02;;;9.40;99.90;;;;;;4865808;29;20037;-87
2024/02/09 04:24:41;;;;;;;0.50;0.50;;;9.40;99.90;;;;;;4861738;29;20060;-87
2024/02/09 04:27:07;;;;;;;2.03;1.55;;;9.40;99.90;;;;;;4861649;29;20147;-85
2024/02/09 04:29:33;;;;;;;0.63;0.63;;;9.40;99.90;;;;;;4860488;29;20386;-87
2024/02/09 04:32:04;;;;;;;1.45;0.98;;;9.50;99.90;;;;;;4861338;29;20029;-86
2024/02/09 04:34:31;;;;;;;;;;;9.50;99.90;;;;;;4858946;29;20490;-84
2024/02/09 04:36:59;;;;;;;0.30;0.30;;;9.50;99.90;;;;;;4860244;29;19924;-87
2024/02/09 04:39:26;;;;;;;1.42;0.68;;;9.60;99.90;;;;;;4860039;29;20053;-83
2024/02/09 04:41:52;;;;;;;2.80;2.60;;;9.60;99.90;;;;;;4859765;29;20046;-83
2024/02/09 04:44:21;;;;;;;2.25;1.42;;;9.60;99.90;;;;;;4859972;29;20041;-82
2024/02/09 04:46:48;;;;;;;3.90;0.88;;;9.50;99.90;;;;;;4860090;29;20048;-88
2024/02/09 04:49:14;;;;;;;0.40;0.40;;;9.60;99.90;;;;;;4860453;29;20420;-80
2024/02/09 04:51:42;;;;;;;1.52;1.45;;;9.50;99.90;;;;;;4860901;29;20037;-79
2024/02/09 04:54:09;;;;;;;1.33;1.23;;;9.50;99.90;;;;;;4860551;29;20029;-77
2024/02/09 04:56:35;;;;;;;1.45;1.35;;;9.50;99.90;;;;;;4859985;29;20049;-80
2024/02/09 04:59:10;;;;;;;14.18;1.90;;;9.50;99.90;;;;;;4860619;29;20041;-80
2024/02/09 05:01:39;;;;;;;15.25;2.70;;;9.50;99.90;;;;;;4844247;29;20042;-80
2024/02/09 05:04:10;;;;;;;0.52;0.52;;;9.50;99.90;;;;;;4860837;29;20042;-80
2024/02/09 05:06:38;;;;;;;0.47;0.35;;;9.50;99.90;;;;;;4847636;29;20074;-79
2024/02/09 05:09:09;;;;;;;1.05;0.98;;;9.50;99.90;;;;;;4842108;29;20049;-79
2024/02/09 05:11:36;;;;;;;0.30;0.30;;;9.50;99.90;;;;;;4860017;29;20033;-80
2024/02/09 05:14:06;;;;;;;0.43;0.43;;;9.50;99.90;;;;;;4860072;29;20374;-78
2024/02/09 05:16:36;;;;;;;1.35;1.20;;;9.50;99.90;;;;;;4859645;29;20060;-81
2024/02/09 05:19:02;;;;;;;4.50;1.70;;;9.40;99.90;;;;;;4866190;29;20038;-78
2024/02/09 05:21:29;;;;;;;0.43;0.43;;;9.40;99.90;;;;;;4863843;29;20033;-80
2024/02/09 05:23:58;;;;;;;0.60;0.55;;;9.50;99.90;;;;;;4863925;29;20037;-79
2024/02/09 05:26:24;;;;;;;1.90;0.57;;;9.40;99.90;;;;;;4863571;29;20033;-87
2024/02/09 05:28:51;;;;;;;1.27;0.85;;;9.40;99.90;;;;;;4862728;29;20041;-79
2024/02/09 05:31:22;;;;;;;0.80;0.80;;;9.40;99.90;;;;;;4863100;29;20033;-77
2024/02/09 05:33:50;;;;;;;2.40;1.15;;;9.40;99.90;;;;;;4861112;29;20378;-79
2024/02/09 05:36:25;;;;;;;2.00;1.85;;;9.40;99.90;;;;;;4862688;29;20049;-77
2024/02/09 05:38:53;;;;;;;4.43;1.23;;;9.40;99.90;;;;;;4868155;29;20053;-80
2024/02/09 05:41:21;;;;;;;3.05;1.08;;;9.50;99.90;;;;;;4865762;29;20060;-77
2024/02/09 05:43:48;;;;;;;0.55;0.55;;;9.40;99.90;;;;;;4863013;29;20037;-81
2024/02/09 05:46:15;;;;;;;1.15;1.05;;;9.40;99.90;;;;;;4863009;29;20026;-79
2024/02/09 05:48:43;;;;;;;1.52;1.02;;;9.40;99.90;;;;;;4861491;29;20033;-79
2024/02/09 05:51:13;;;;;;;1.60;1.15;;;9.40;99.90;;;;;;4862707;29;20056;-79
2024/02/09 05:53:40;;;;;;;0.73;0.73;;;9.40;99.90;;;;;;4862600;29;20037;-79
2024/02/09 05:56:19;;;;;;;1.75;0.85;;;9.40;99.90;;;;;;4862514;29;20045;-79
2024/02/09 05:58:51;;;;;;;0.50;0.50;;;9.40;99.90;;;;;;4860700;29;20068;-80
2024/02/09 06:01:19;;;;;;;1.23;1.05;;;9.40;99.90;;;;;;4862770;29;20497;-79
2024/02/09 06:03:46;;;;;;;0.75;0.75;;;9.40;99.90;;;;;;4869526;29;20037;-77
2024/02/09 06:06:15;;;;;;;0.28;0.28;;;9.40;99.90;;;;;;4862298;29;20479;-78
2024/02/09 06:08:46;;;;;;;0.63;0.60;;;9.40;99.90;;;;;;4861800;29;20068;-78
2024/02/09 06:11:15;;;;;;;1.05;0.95;;;9.40;99.90;;;;;;4862251;29;20030;-78
2024/02/09 06:13:44;;;;;;;1.85;1.52;;;9.40;99.90;;;;;;4861749;29;20391;-78
2024/02/09 06:16:15;;;;;;;0.80;0.80;;;9.40;99.90;;;;;;4861965;29;20034;-78
2024/02/09 06:18:45;;;;;;;5.10;3.83;;;9.40;99.90;;;;;;4861500;29;20071;-79
2024/02/09 06:21:13;;;;;;;6.28;5.47;;;9.40;99.90;;;;;;4844945;29;20049;-79
2024/02/09 06:23:40;;;;;;;12.68;8.73;;;9.40;99.90;;;;;;4861325;29;20038;-78
2024/02/09 06:26:10;;;;;;;19.30;13.25;;;9.50;99.90;;;;;;4861839;29;20038;-79
2024/02/09 06:28:36;;;;;;;8.43;4.57;;;9.50;99.90;;;;;;4861528;29;20037;-79
2024/02/09 06:31:03;;;;;;;8.50;4.63;;;9.50;99.90;;;;;;4861107;29;20467;-79
2024/02/09 06:33:29;;;;;;;3.60;3.03;;;9.50;99.90;;;;;;4865615;29;20050;-85
2024/02/09 06:35:56;;;;;;;4.95;3.22;;;9.50;99.90;;;;;;4861848;29;20459;-77
2024/02/09 06:38:22;;;;;;;4.78;3.63;;;9.50;99.90;;;;;;4861948;29;20124;-77
2024/02/09 06:40:53;;;;;;;2.90;1.52;;;9.50;99.90;;;;;;4861246;29;20049;-77
2024/02/09 06:43:21;;;;;;;3.72;2.33;;;9.50;99.90;;;;;;4861701;29;20053;-75
2024/02/09 06:45:47;;;;;;;3.05;2.45;;;9.60;99.90;;;;;;4861216;29;20041;-77
2024/02/09 06:48:13;;;;;;;1.08;1.00;;;9.50;99.90;;;;;;4861574;29;20045;-77
2024/02/09 06:50:40;;;;;;;5.05;2.10;;;9.50;99.90;;;;;;4859363;29;20033;-78
2024/02/09 06:53:06;;;;;;;2.42;2.22;;;9.50;99.90;;;;;;4861546;29;20045;-77
2024/02/09 06:55:36;;;;;;;1.15;1.05;;;9.50;99.90;;;;;;4861100;29;20052;-82
2024/02/09 06:58:03;;;;;;;0.82;0.75;;;9.50;99.90;;;;;;4857578;29;20064;-78
2024/02/09 07:00:32;;;;;;;4.15;1.17;;;9.50;99.90;;;;;;4861309;29;20030;-84
2024/02/09 07:02:59;;;;;;;2.10;1.20;;;9.50;99.90;;;;;;4861456;29;20061;-78
2024/02/09 07:05:25;;;;;;;7.03;2.13;;;9.50;99.90;;;;;;4861913;29;20041;-79
2024/02/09 07:07:52;;;;;;;1.30;1.20;;;9.50;99.90;;;;;;4840187;29;20073;-78
2024/02/09 07:10:22;;;;;;;1.30;1.20;;;9.50;99.90;;;;;;4861492;29;20521;-75
2024/02/09 07:12:50;;;;;;;2.08;1.70;;;9.50;99.90;;;;;;4860998;29;20409;-78
2024/02/09 07:15:16;;;;;;;0.50;0.50;;;9.50;99.90;;;;;;4860409;29;20038;-78
2024/02/09 07:17:44;;;;;;;0.43;0.43;;;9.50;99.90;;;;;;4861377;29;20415;-80
2024/02/09 07:20:11;;;;;;;0.80;0.73;;;9.50;99.90;;;;;;4860932;29;20037;-79
2024/02/09 07:22:38;;;;;;;0.30;0.30;;;9.50;99.90;;;;;;4866878;29;20036;-79
2024/02/09 07:25:04;;;;;;;1.38;1.17;;;9.50;99.90;;;;;;4860680;29;20469;-81
2024/02/09 07:27:31;;;;;;;2.00;1.67;;;9.50;99.90;;;;;;4861734;29;20068;-83
2024/02/09 07:29:57;;;;;;;1.98;1.67;;;9.60;99.90;;;;;;4861721;29;20034;-79
2024/02/09 07:32:23;;;;;;;1.08;0.98;;;9.60;99.90;;;;;;4861617;29;20041;-78
2024/02/09 07:34:50;;;;;;;1.30;0.75;;;9.60;99.90;;;;;;4861139;29;20046;-80
2024/02/09 07:37:17;;;;;;;3.40;2.25;;;9.60;99.90;;;;;;4843675;29;20057;-79
2024/02/09 07:39:43;;;;;;;0.90;0.65;;;9.60;99.90;;;;;;4860766;29;20471;-78
2024/02/09 07:42:09;;;;;;;1.27;1.17;;;9.60;99.90;;;;;;4860087;29;20419;-79
2024/02/09 07:44:39;;;;;;;1.90;1.00;;;9.60;99.90;;;;;;4843805;29;20052;-79
2024/02/09 07:47:06;;;;;;;1.23;0.73;;;9.60;99.90;;;;;;4842960;29;20062;-77
2024/02/09 07:49:33;;;;;;;2.60;1.33;;;9.70;99.90;;;;;;4860928;29;20394;-80
2024/02/09 07:52:03;;;;;;;5.68;1.90;;;9.70;99.90;;;;;;4860546;29;20038;-80
2024/02/09 07:54:32;;;;;;;1.27;1.17;;;9.70;99.90;;;;;;4860358;29;20041;-79
2024/02/09 07:56:59;;;;;;;2.80;1.77;;;9.70;99.90;;;;;;4860742;29;20489;-80
2024/02/09 07:59:25;;;;;;;0.63;0.63;;;9.70;99.90;;;;;;4860595;29;20041;-80
2024/02/09 08:01:52;;;;;;;1.15;0.85;;;9.70;99.90;;;;;;4860427;29;20030;-79
2024/02/09 08:04:21;;;;;;;3.08;1.85;;;9.70;99.90;;;;;;4860322;29;20127;-78
2024/02/09 08:06:47;;;;;;;4.90;3.50;;;9.70;99.90;;;;;;4860425;29;20046;-80
2024/02/09 08:09:14;;;;;;;1.35;1.25;;;9.80;99.90;;;;;;4860305;29;20052;-79
2024/02/09 08:11:42;;;;;;;0.55;0.55;;;9.80;99.90;;;;;;4855979;29;20056;-79
2024/02/09 08:14:08;;;;;;;1.38;1.27;;;9.80;99.90;;;;;;4846993;29;20041;-80
2024/02/09 08:16:35;;;;;;;2.30;1.65;;;9.80;99.90;;;;;;4860185;29;20029;-80
2024/02/09 08:19:01;;;;;;;0.35;0.32;;;9.80;99.90;;;;;;4860400;29;20046;-79
2024/02/09 08:21:27;;;;;;;3.50;1.20;;;9.90;99.90;;;;;;4860494;29;20041;-79
2024/02/09 08:23:53;;;;;;;0.95;0.77;;;9.90;99.90;;;;;;4860100;29;20041;-83
2024/02/09 08:26:20;;;;;;;1.13;1.13;;;9.90;99.90;;;;;;4860352;29;20033;-83
2024/02/09 08:28:47;;;;;;;3.05;1.08;;;9.90;99.90;;;;;;4866830;29;20045;-85
2024/02/09 08:31:15;;;;;;;1.42;1.30;;;9.90;99.90;;;;;;4860637;29;20045;-84
2024/02/09 08:33:51;;;;;;;1.88;1.02;;;10.00;99.90;;;;;;4858578;29;20037;-83
2024/02/09 08:36:21;;;;;;;0.45;0.45;;;10.00;99.90;;;;;;4859694;29;20041;-83
2024/02/09 08:38:48;;;;;;;2.38;1.75;;;10.00;99.90;;;;;;4849107;29;20076;-84
2024/02/09 08:41:14;;;;;;;1.23;0.28;;;10.00;99.90;;;;;;4860360;29;20037;-84
2024/02/09 08:43:43;;;;;;;1.30;0.73;;;10.00;99.90;;;;;;4859672;29;20033;-85
2024/02/09 08:46:09;;;;;;;5.18;2.38;;;10.10;99.90;;;;;;4860355;29;20048;-88
2024/02/09 08:48:35;;;;;;;0.85;0.60;;;10.10;99.90;;;;;;4859666;29;20402;-83
2024/02/09 08:51:02;;;;;;;3.30;1.65;;;10.10;99.90;;;;;;4861263;29;20033;-85
2024/02/09 08:53:28;;;;;;;0.60;0.57;;;10.20;99.90;;;;;;4858136;29;20038;-84
2024/02/09 08:55:54;;;;;;;1.65;1.30;;;10.20;99.90;;;;;;4856855;29;20030;-84
2024/02/09 08:58:21;;;;;;;1.00;0.90;;;10.30;99.90;;;;;;4859186;29;20067;-84
2024/02/09 09:00:47;;;;;;;1.42;1.17;;;10.30;99.90;;;;;;4858907;29;20029;-84
2024/02/09 09:03:17;;;;;;;0.68;0.65;;;10.30;99.90;;;;;;4859178;29;20037;-85
2024/02/09 09:05:47;;;;;;;0.20;0.20;;;10.40;99.90;;;;;;4862527;29;20042;-83
2024/02/09 09:08:14;;;;;;;0.95;0.95;;;10.40;99.90;;;;;;4865310;29;20491;-84
2024/02/09 09:10:40;;;;;;;1.65;1.13;;;10.40;99.90;;;;;;4866381;29;20050;-85
2024/02/09 09:13:10;;;;;;;2.65;1.88;;;10.40;99.90;;;;;;4852351;29;20041;-83
2024/02/09 09:15:42;;;;;;;1.52;1.42;;;10.50;99.90;;;;;;4862170;29;20041;-82
2024/02/09 09:18:08;;;;;;;2.10;1.85;;;10.60;99.90;;;;;;4859764;29;20503;-84
2024/02/09 09:20:35;;;;;;;2.20;1.83;;;10.60;99.90;;;;;;4859768;29;20033;-86
2024/02/09 09:23:02;;;;;;;0.30;0.30;;;10.60;99.90;;;;;;4858788;29;20045;-87
2024/02/09 09:25:31;;;;;;;4.30;1.80;;;10.70;81.40;;;;;;4859192;29;20123;-87
2024/02/09 09:27:58;;;;;;;0.95;0.88;;;10.70;2.50;;;;;;4858869;29;20041;-84
2024/02/09 09:30:25;;;;;;;2.35;2.25;;;10.80;1.00;;;;;;4859751;29;20029;-85
2024/02/09 09:32:51;;;;;;;3.38;2.72;;;10.80;1.00;;;;;;4858923;29;20049;-85
2024/02/09 09:35:17;;;;;;;0.65;0.65;;;10.90;1.00;;;;;;4860923;29;20041;-88
2024/02/09 09:37:44;;;;;;;0.77;0.73;;;11.10;99.90;;;;;;4861236;29;20045;-87
2024/02/09 09:40:12;;;;;;;1.00;0.88;;;11.10;99.90;;;;;;4859288;29;20022;-85
2024/02/09 09:42:42;;;;;;;1.75;1.65;;;11.20;99.90;;;;;;4859848;29;20037;-82
2024/02/09 09:45:09;;;;;;;0.63;0.63;;;11.20;99.90;;;;;;4861297;29;20026;-88
2024/02/09 09:47:42;;;;;;;0.25;0.25;;;11.20;99.90;;;;;;4866441;29;20053;-83
2024/02/09 09:50:10;;;;;;;1.65;1.38;;;11.20;99.90;;;;;;4860753;29;20048;-88
2024/02/09 09:52:48;;;;;;;0.40;0.40;;;11.30;44.40;;;;;;4860741;29;20474;-83
2024/02/09 09:55:18;;;;;;;2.25;0.85;;;11.30;19.40;;;;;;4858551;29;20030;-84
2024/02/09 09:57:46;;;;;;;14.02;2.00;;;11.40;30.10;;;;;;4856847;29;20391;-83
2024/02/09 10:00:12;;;;;;;2.05;0.70;;;11.50;1.00;;;;;;4859414;29;20411;-84
2024/02/09 10:02:39;;;;;;;0.60;0.60;;;11.60;1.00;;;;;;4859615;29;20029;-85
2024/02/09 10:05:09;;;;;;;0.68;0.30;;;11.70;1.00;;;;;;4859904;29;20042;-87
2024/02/09 10:07:41;;;;;;;0.63;0.37;;;11.70;1.00;;;;;;4846188;29;20053;-88
2024/02/09 10:10:11;;;;;;;2.03;1.83;;;11.80;1.00;;;;;;4875987;29;20049;-88
2024/02/09 10:12:38;;;;;;;1.65;1.13;;;11.80;1.00;;;;;;4863024;29;20041;-88
2024/02/09 10:15:05;;;;;;;1.13;1.08;;;11.80;1.00;;;;;;4862434;29;20061;-89
2024/02/09 10:17:31;;;;;;;0.65;0.65;;;11.80;1.00;;;;;;4863030;29;20033;-88
2024/02/09 10:19:59;;;;;;;1.98;1.00;;;11.80;1.00;;;;;;4862008;29;20054;-87
2024/02/09 10:22:27;;;;;;;0.10;0.10;;;11.80;1.00;;;;;;4863497;29;20029;-89
2024/02/09 10:24:53;;;;;;;0.60;0.60;;;12.00;1.00;;;;;;4861902;29;20049;-89
2024/02/09 10:27:19;;;;;;;1.55;0.75;;;12.10;1.00;;;;;;4862520;29;20489;-82
2024/02/09 10:29:46;;;;;;;0.55;0.55;;;12.30;1.00;;;;;;4860286;29;20056;-80
2024/02/09 10:32:12;;;;;;;1.17;1.10;;;12.40;99.90;;;;;;4862026;29;20044;-83
2024/02/09 10:34:40;;;;;;;2.50;2.30;;;12.50;99.90;;;;;;4862478;29;20041;-84
2024/02/09 10:37:06;;;;;;;30.15;4.47;;;12.70;99.90;;;;;;4844713;29;20052;-84
2024/02/09 10:39:32;;;;;;;0.30;0.30;;;12.90;99.90;;;;;;4856576;29;20053;-88
2024/02/09 10:42:03;;;;;;;0.73;0.50;;;12.90;99.90;;;;;;4862461;29;20038;-81
2024/02/09 10:44:36;;;;;;;0.30;0.30;;;12.80;99.90;;;;;;4862511;29;20475;-80
2024/02/09 10:47:08;;;;;;;0.85;0.85;;;12.70;99.90;;;;;;4863507;29;20036;-88
2024/02/09 10:49:39;;;;;;;0.10;0.10;;;12.70;99.90;;;;;;4839966;29;20049;-87
2024/02/09 10:52:09;;;;;;;2.28;0.85;;;12.70;99.90;;;;;;4862807;29;20478;-89
2024/02/09 10:54:56;;;;;;;0.85;0.73;;;12.70;99.90;;;;;;4852871;29;20463;-86
2024/02/09 10:57:27;;;;;;;1.02;0.45;;;12.90;99.90;;;;;;4861531;29;20037;-88
2024/02/09 10:59:53;;;;;;;1.15;0.88;;;13.00;99.90;;;;;;4861710;29;20045;-89
2024/02/09 11:02:20;;;;;;;3.30;1.25;;;13.00;99.90;;;;;;4845752;29;20060;-82
2024/02/09 11:04:46;;;;;;;0.20;0.20;;;13.10;99.70;;;;;;4866915;29;20034;-82
2024/02/09 11:07:15;;;;;;;0.52;0.52;;;13.10;99.90;;;;;;4860412;29;20067;-82
2024/02/09 11:09:44;;;;;;;0.25;0.17;;;13.00;99.90;;;;;;4860651;29;20052;-83
2024/02/09 11:12:13;;;;;;;0.30;0.30;;;13.00;99.90;;;;;;4860330;29;20029;-86
2024/02/09 11:14:44;;;;;;;0.43;0.43;;;12.90;99.90;;;;;;4860903;29;20034;-87
2024/02/09 11:17:12;;;;;;;0.88;0.85;;;13.00;99.90;;;;;;4857539;29;20041;-86
2024/02/09 11:19:42;;;;;;;2.50;1.55;;;12.90;99.90;;;;;;4860686;29;20048;-87
2024/02/09 11:22:09;;;;;;;0.60;0.60;;;12.90;99.90;;;;;;4859193;29;20511;-88
2024/02/09 11:24:36;;;;;;;1.50;0.75;;;12.90;99.90;;;;;;4858513;29;20306;-87
2024/02/09 11:27:04;;;;;;;1.00;0.28;;;12.90;99.90;;;;;;4862917;29;20119;-89
2024/02/09 11:29:34;;;;;;;0.82;0.75;;;12.90;99.90;;;;;;4859911;29;20045;-90
2024/02/09 11:32:05;;;;;;;0.70;0.68;;;12.90;98.10;;;;;;4857595;29;20423;-82
2024/02/09 11:34:34;;;;;;;0.20;0.20;;;12.90;99.90;;;;;;4859402;29;20044;-82
2024/02/09 11:37:01;;;;;;;0.70;0.47;;;12.90;87.80;;;;;;4859549;29;20037;-85
2024/02/09 11:39:28;;;;;;;4.10;1.15;;;12.90;99.60;;;;;;4859705;29;20038;-84
2024/02/09 11:41:54;;;;;;;1.38;1.00;;;12.90;99.90;;;;;;4861476;29;20033;-84
2024/02/09 11:44:21;;;;;;;0.63;0.45;;;13.00;77.30;;;;;;4861821;29;20052;-85
2024/02/09 11:46:49;;;;;;;16.23;1.85;;;13.00;33.00;;;;;;4860675;29;20029;-85
2024/02/09 11:49:15;;;;;;;0.30;0.30;;;13.10;26.80;;;;;;4866006;29;20383;-85
2024/02/09 11:51:41;;;;;;;0.25;0.25;;;13.20;25.20;;;;;;4861873;29;20038;-86
2024/02/09 11:54:11;;;;;;;1.27;1.17;;;13.30;1.70;;;;;;4876585;29;20034;-85
2024/02/09 11:56:44;;;;;;;1.77;1.52;;;13.40;12.80;;;;;;4876978;29;20439;-86
2024/02/09 11:59:11;;;;;;;0.20;0.20;;;13.40;1.00;;;;;;4873864;29;20043;-84
2024/02/09 12:01:40;;;;;;;0.40;0.40;;;13.40;1.00;;;;;;4874398;29;20390;-83
2024/02/09 12:04:07;;;;;;;0.10;0.10;;;13.60;1.00;;;;;;4871350;29;20040;-85
2024/02/09 12:06:34;;;;;;;2.03;0.95;;;13.60;1.00;;;;;;4864522;29;20080;-85
2024/02/09 12:09:00;;;;;;;3.63;1.27;;;13.70;1.00;;;;;;4864185;29;20038;-85
2024/02/09 12:11:27;;;;;;;0.25;0.25;;;13.70;1.00;;;;;;4863057;29;20033;-86
2024/02/09 12:13:53;;;;;;;0.70;0.70;;;13.60;1.00;;;;;;4862788;29;20052;-86
2024/02/09 12:16:19;;;;;;;1.48;0.95;;;13.70;1.00;;;;;;4861586;29;20431;-84
2024/02/09 12:18:48;;;;;;;1.75;1.23;;;13.70;1.00;;;;;;4860833;29;20044;-85
2024/02/09 12:21:15;;;;;;;0.60;0.60;;;13.70;1.00;;;;;;4862036;29;20037;-85
2024/02/09 12:23:41;;;;;;;0.40;0.40;;;13.70;1.00;;;;;;4861759;29;20029;-84
2024/02/09 12:26:08;;;;;;;0.45;0.30;;;13.70;1.00;;;;;;4861380;29;20037;-87
2024/02/09 12:28:35;;;;;;;1.15;1.08;;;13.70;1.00;;;;;;4850503;29;20052;-85
2024/02/09 12:31:08;;;;;;;0.40;0.40;;;13.70;1.00;;;;;;4859002;29;20053;-86
2024/02/09 12:33:44;;;;;;;0.10;0.10;;;13.80;1.00;;;;;;4861583;29;20418;-87
2024/02/09 12:36:13;;;;;;;1.10;0.80;;;13.90;1.00;;;;;;4862252;29;20042;-85
2024/02/09 12:38:42;;;;;;;0.35;0.35;;;14.00;1.00;;;;;;4866200;29;20108;-85
2024/02/09 12:41:09;;;;;;;0.68;0.50;;;14.00;1.00;;;;;;4861126;29;20223;-84
2024/02/09 12:43:36;;;;;;;1.88;1.17;;;14.00;1.00;;;;;;4861138;29;20034;-81
2024/02/09 12:46:06;;;;;;;5.22;1.05;;;14.00;99.90;;;;;;4861061;29;20391;-81
2024/02/09 12:48:40;;;;;;;1.73;0.90;;;14.10;99.90;;;;;;4861261;29;20041;-81
2024/02/09 12:51:06;;;;;;;3.50;1.45;;;14.20;1.00;;;;;;4856902;29;20049;-80
2024/02/09 12:53:36;;;;;;;8.60;6.25;;;14.30;99.90;;;;;;4864624;29;20030;-80
2024/02/09 12:56:02;;;;;;;9.07;4.00;;;14.40;99.90;;;;;;4842239;29;20048;-80
2024/02/09 12:58:30;;;;;;;10.98;3.97;;;14.40;99.90;;;;;;4848763;29;20301;-81
2024/02/09 13:00:56;;;;;;;5.13;3.17;;;14.50;99.90;;;;;;4861997;29;20478;-81
2024/02/09 13:03:23;;;;;;;4.32;2.88;;;14.60;99.90;;;;;;4860250;29;20049;-80
2024/02/09 13:05:52;;;;;;;1.80;0.77;;;14.60;99.90;;;;;;4868742;29;20053;-80
2024/02/09 13:08:21;;;;;;;2.67;2.20;;;14.70;99.90;;;;;;4865094;29;20041;-84
2024/02/09 13:10:51;;;;;;;3.60;2.28;;;14.70;99.90;;;;;;4860486;29;20057;-82
2024/02/09 13:13:17;;;;;;;3.53;1.75;;;14.70;99.90;;;;;;4871668;29;20037;-81
2024/02/09 13:15:45;;;;;;;1.88;1.70;;;14.80;99.90;;;;;;4859897;29;20069;-82
2024/02/09 13:18:11;;;;;;;2.47;1.23;;;14.60;99.90;;;;;;4859763;29;20025;-84
2024/02/09 13:20:37;;;;;;;1.60;1.08;;;14.60;99.90;;;;;;4860633;29;20057;-85
2024/02/09 13:23:04;;;;;;;1.95;0.93;;;14.60;99.90;;;;;;4863210;29;20033;-84
2024/02/09 13:25:35;;;;;;;2.33;1.67;;;14.50;99.90;;;;;;4866501;29;20390;-82
2024/02/09 13:28:04;;;;;;;2.42;2.22;;;14.40;99.90;;;;;;4859236;29;20041;-81
2024/02/09 13:30:30;;;;;;;1.05;1.00;;;14.30;99.90;;;;;;4858932;29;20931;-80
2024/02/09 13:32:57;;;;;;;1.77;1.55;;;14.20;99.90;;;;;;4859668;29;20119;-82
2024/02/09 13:35:24;;;;;;;0.63;0.63;;;14.20;99.90;;;;;;4858773;29;20049;-79
2024/02/09 13:37:50;;;;;;;1.80;0.85;;;14.20;99.90;;;;;;4859566;29;20042;-80
2024/02/09 13:40:18;;;;;;;1.60;0.95;;;14.10;99.90;;;;;;4864290;29;20471;-79
2024/02/09 13:42:47;;;;;;;5.35;1.67;;;14.10;99.90;;;;;;4869503;29;20045;-87
2024/02/09 13:45:18;;;;;;;0.60;0.60;;;14.10;99.90;;;;;;4873733;29;20061;-84
2024/02/09 13:47:45;;;;;;;1.33;1.02;;;14.10;99.90;;;;;;4856190;29;21792;-84
2024/02/09 13:50:12;;;;;;;0.10;0.10;;;14.10;99.90;;;;;;4871296;29;20041;-84
2024/02/09 13:52:39;;;;;;;0.90;0.73;;;14.20;99.90;;;;;;4861599;29;20045;-85
2024/02/09 13:55:09;;;;;;;0.45;0.45;;;14.20;99.90;;;;;;4872040;29;20040;-84
2024/02/09 13:57:35;;;;;;;0.13;0.13;;;14.20;99.90;;;;;;4871174;29;20034;-85
2024/02/09 14:00:03;;;;;;;2.50;1.00;;;14.20;99.90;;;;;;4870913;29;20463;-86
2024/02/09 14:02:50;;;;;;;2.28;0.65;;;14.20;99.90;;;;;;4863302;29;20056;-86
2024/02/09 14:05:18;;;;;;;0.40;0.40;;;14.30;99.90;;;;;;4836201;29;20061;-86
2024/02/09 14:07:56;;;;;;;0.68;0.38;;;14.30;99.90;;;;;;4846245;29;20073;-87
2024/02/09 14:10:22;;;;;;;0.35;0.35;;;14.30;99.90;;;;;;4841337;29;20041;-85
2024/02/09 14:12:50;;;;;;;0.28;0.15;;;14.30;91.60;;;;;;4847977;29;20451;-86
2024/02/09 14:15:16;;;;;;;1.85;0.93;;;14.30;97.80;;;;;;4852189;29;20034;-87
2024/02/09 14:17:43;;;;;;;0.50;0.50;;;14.30;62.10;;;;;;4834344;29;20057;-85
2024/02/09 14:20:13;;;;;;;0.35;0.35;;;14.20;93.40;;;;;;4853652;29;20046;-85
2024/02/09 14:22:43;;;;;;;0.25;0.25;;;14.20;99.30;;;;;;4832996;29;20053;-85
2024/02/09 14:25:12;;;;;;;0.50;0.50;;;14.20;99.90;;;;;;4805576;29;20042;-86
2024/02/09 14:27:38;;;;;;;0.17;0.17;;;14.10;87.40;;;;;;4861418;29;20037;-87
2024/02/09 14:30:06;;;;;;;0.22;0.22;;;14.10;99.90;;;;;;4844207;29;20046;-87
2024/02/09 14:32:32;;;;;;;0.20;0.20;;;14.10;99.90;;;;;;4848536;29;20044;-87
2024/02/09 14:34:59;;;;;;;1.10;0.85;;;14.10;99.90;;;;;;4854885;29;20053;-87
2024/02/09 14:37:27;;;;;;;0.10;0.10;;;14.10;95.80;;;;;;4868369;29;20038;-87
2024/02/09 14:39:55;;;;;;;0.30;0.30;;;14.10;81.10;;;;;;4839490;29;20410;-88
2024/02/09 14:42:24;;;;;;;1.55;0.20;;;14.20;76.20;;;;;;4849928;29;20511;-89
2024/02/09 14:44:50;;;;;;;1.45;1.27;;;14.20;93.50;;;;;;4863144;29;20060;-89
2024/02/09 14:47:17;;;;;;;0.40;0.40;;;14.20;80.50;;;;;;4845023;29;20037;-87
2024/02/09 14:49:47;;;;;;;0.20;0.20;;;14.20;62.30;;;;;;4870889;29;20037;-87
2024/02/09 14:52:14;;;;;;;4.20;1.13;;;14.20;92.20;;;;;;4858656;29;20057;-88
2024/02/09 14:54:41;;;;;;;0.22;0.22;;;14.10;67.40;;;;;;4862305;29;20053;-87
2024/02/09 14:57:09;;;;;;;0.17;0.17;;;14.10;90.80;;;;;;4862188;29;20033;-89
2024/02/09 14:59:35;;;;;;;2.83;2.47;;;14.00;99.90;;;;;;4861791;29;20044;-88
2024/02/09 15:02:01;;;;;;;0.73;0.73;;;13.90;93.80;;;;;;4858237;29;20403;-86
2024/02/09 15:04:29;;;;;;;0.43;0.43;;;13.90;99.90;;;;;;4858531;29;20467;-80
2024/02/09 15:06:56;;;;;;;4.95;0.80;;;13.90;99.90;;;;;;4856882;29;20062;-76
2024/02/09 15:09:24;;;;;;;0.43;0.43;;;13.90;99.90;;;;;;4857251;29;20038;-79
2024/02/09 15:11:51;;;;;;;0.43;0.43;;;13.90;95.90;;;;;;4858934;29;20045;-78
2024/02/09 15:14:18;;;;;;;0.30;0.30;;;13.90;99.90;;;;;;4860083;29;20259;-78
2024/02/09 15:16:44;;;;;;;1.83;0.88;;;13.90;99.90;;;;;;4860516;29;20046;-78
2024/02/09 15:19:11;;;;;;;0.20;0.20;;;13.80;99.90;;;;;;4855914;29;20049;-77
2024/02/09 15:21:43;;;;;;;0.57;0.45;;;13.90;99.90;;;;;;4860516;29;20030;-76
2024/02/09 15:24:10;;;;;;;0.40;0.38;;;13.90;92.80;;;;;;4860667;29;20037;-80
2024/02/09 15:26:39;;;;;;;0.93;0.85;;;13.80;95.50;;;;;;4860621;29;20033;-80
2024/02/09 15:29:06;;;;;;;0.45;0.45;;;13.80;99.90;;;;;;4858622;29;20472;-80
2024/02/09 15:31:32;;;;;;;0.25;0.25;;;13.70;99.90;;;;;;4860719;29;20045;-77
2024/02/09 15:34:01;;;;;;;9.63;2.75;;;13.70;99.90;;;;;;4860080;29;20037;-80
2024/02/09 15:36:30;;;;;;;4.50;0.20;;;13.70;99.90;;;;;;4858013;29;20649;-79
2024/02/09 15:38:56;;;;;;;0.10;0.10;;;13.70;99.90;;;;;;4860747;29;20041;-81
2024/02/09 15:41:22;;;;;;;0.20;0.20;;;13.60;99.90;;;;;;4859639;29;20045;-81
2024/02/09 15:43:49;;;;;;;1.58;1.40;;;13.60;99.90;;;;;;4860094;29;20518;-83
2024/02/09 15:46:19;;;;;;;0.57;0.35;;;13.60;99.90;;;;;;4858861;29;20037;-78
2024/02/09 15:48:49;;;;;;;0.52;0.52;;;13.50;99.90;;;;;;4865472;29;20064;-81
2024/02/09 15:51:22;;;;;;;9.32;4.20;;;13.50;99.90;;;;;;4859560;29;20037;-78
2024/02/09 15:53:52;;;;;;;3.30;2.88;;;13.50;99.90;;;;;;4860143;29;20514;-80
2024/02/09 15:56:24;;;;;;;4.70;3.78;;;13.50;99.90;;;;;;4859665;29;20048;-79
2024/02/09 15:58:53;;;;;;;1.60;0.98;;;13.40;99.90;;;;;;4859817;29;20033;-77
2024/02/09 16:01:19;;;;;;;0.75;0.68;;;13.40;99.90;;;;;;4858121;29;20042;-80
2024/02/09 16:03:47;;;;;;;1.77;1.15;;;13.30;99.90;;;;;;4859997;29;20467;-77
2024/02/09 16:06:14;;;;;;;2.58;1.20;;;13.30;99.90;;;;;;4859211;29;20061;-81
2024/02/09 16:08:42;;;;;;;3.17;1.63;;;13.20;99.90;;;;;;4860046;29;20037;-79
2024/02/09 16:11:09;;;;;;;0.50;0.50;;;13.20;99.90;;;;;;4859509;29;20491;-79
2024/02/09 16:13:39;;;;;;;1.23;0.50;;;13.20;99.90;;;;;;4860318;29;20038;-78
2024/02/09 16:16:07;;;;;;;3.10;1.23;;;13.10;99.90;;;;;;4859603;29;20033;-80
2024/02/09 16:18:35;;;;;;;0.20;0.20;;;13.10;99.90;;;;;;4857999;29;20025;-80
2024/02/09 16:21:04;;;;;;;0.45;0.45;;;13.10;99.90;;;;;;4860138;29;20045;-80
2024/02/09 16:23:30;;;;;;;4.88;0.50;;;13.00;99.90;;;;;;4858993;29;20041;-81
2024/02/09 16:25:57;;;;;;;0.28;0.22;;;13.00;99.90;;;;;;4859717;29;20033;-79
2024/02/09 16:28:23;;;;;;;0.75;0.75;;;13.00;99.90;;;;;;4859149;29;20038;-80
2024/02/09 16:30:50;;;;;;;0.60;0.50;;;12.90;99.90;;;;;;4859940;29;20041;-79
2024/02/09 16:33:17;;;;;;;0.30;0.30;;;12.90;99.90;;;;;;4859527;29;20044;-80
2024/02/09 16:35:45;;;;;;;2.67;2.00;;;12.80;99.90;;;;;;4859741;29;20037;-79
2024/02/09 16:38:12;;;;;;;0.82;0.82;;;12.80;99.90;;;;;;4859565;29;20494;-80
2024/02/09 16:40:38;;;;;;;0.40;0.40;;;12.80;99.90;;;;;;4859061;29;20049;-81
2024/02/09 16:43:04;;;;;;;2.03;1.10;;;12.80;99.90;;;;;;4859060;29;20042;-79
2024/02/09 16:45:32;;;;;;;0.55;0.55;;;12.70;99.90;;;;;;4859576;29;20041;-79
2024/02/09 16:47:59;;;;;;;1.65;1.33;;;12.70;99.90;;;;;;4859443;29;20030;-80
2024/02/09 16:50:26;;;;;;;0.50;0.50;;;12.70;99.90;;;;;;4859391;29;20033;-81
2024/02/09 16:52:52;;;;;;;1.00;0.40;;;12.60;99.90;;;;;;4859359;29;20049;-79
2024/02/09 16:55:18;;;;;;;1.02;0.60;;;12.60;99.90;;;;;;4859500;29;20040;-80
2024/02/09 16:57:44;;;;;;;0.57;0.50;;;12.60;99.90;;;;;;4859627;29;20498;-80